Time;durP1;ratioP1;P1;durP2;ratioP2;P2;SDS_P1;SDS_P2;PMS_P1;PMS_P2;Temp;Humidity;BMP_temperature;BMP_pressure;BME280_temperature;BME280_humidity;BME280_pressure;Samples;Min_cycle;Max_cycle;Signal;HPM_P1;HPM_P2
2021/04/12 00:00:22;;;;;;;9.95;3.78;;;;;;;5.12;67.03;93722.41;4991868;28;20046;-90
2021/04/12 00:02:52;;;;;;;8.70;3.80;;;;;;;5.21;66.48;93716.34;4991813;28;20170;-88
2021/04/12 00:05:31;;;;;;;7.28;3.55;;;;;;;5.22;67.00;93708.53;4992031;28;20050;-90
2021/04/12 00:08:06;;;;;;;9.27;4.38;;;;;;;5.39;66.54;93720.41;4991920;28;20414;-89
2021/04/12 00:10:38;;;;;;;11.40;5.70;;;;;;;5.55;66.13;93722.13;4991717;28;20046;-89
2021/04/12 00:13:10;;;;;;;15.35;7.03;;;;;;;5.59;65.06;93723.34;4991525;28;20370;-88
2021/04/12 00:15:47;;;;;;;18.20;7.13;;;;;;;5.61;66.06;93721.47;4991832;28;20121;-91
2021/04/12 00:18:21;;;;;;;16.02;7.72;;;;;;;5.58;66.77;93726.88;4991515;28;20514;-91
2021/04/12 00:20:55;;;;;;;14.85;6.78;;;;;;;5.55;65.81;93714.47;4991750;28;20555;-89
2021/04/12 00:23:31;;;;;;;20.58;7.20;;;;;;;5.66;66.58;93724.31;4991502;28;20073;-90
2021/04/12 00:26:06;;;;;;;13.75;7.07;;;;;;;5.70;66.07;93719.66;4991599;28;20047;-90
2021/04/12 00:28:36;;;;;;;15.73;5.47;;;;;;;5.62;64.90;93710.28;4991588;28;20078;-90
2021/04/12 00:31:11;;;;;;;13.25;6.60;;;;;;;5.66;65.10;93716.66;4991682;28;20046;-91
2021/04/12 00:33:42;;;;;;;9.75;4.57;;;;;;;5.64;64.09;93707.59;4991409;28;20505;-92
2021/04/12 00:36:17;;;;;;;10.60;4.35;;;;;;;5.61;64.69;93712.03;4991258;28;20049;-91
2021/04/12 00:38:52;;;;;;;9.27;5.72;;;;;;;5.68;64.74;93719.81;4991369;28;20055;-90
2021/04/12 00:41:49;;;;;;;10.18;5.40;;;;;;;5.69;66.38;93723.19;4991329;28;20165;-91
2021/04/12 00:44:26;;;;;;;10.70;6.35;;;;;;;5.71;65.40;93722.06;4991218;28;20112;-90
2021/04/12 00:47:08;;;;;;;16.63;6.78;;;;;;;5.74;66.30;93710.72;4991248;28;20483;-90
2021/04/12 00:49:44;;;;;;;10.45;5.45;;;;;;;5.71;66.12;93716.16;4991421;28;20058;-89
2021/04/12 00:52:46;;;;;;;18.92;7.07;;;;;;;5.72;65.98;93715.19;4991801;28;20490;-90
2021/04/12 00:55:33;;;;;;;12.90;6.00;;;;;;;5.53;68.23;93706.19;4995075;28;20053;-91
2021/04/12 00:58:08;;;;;;;10.10;5.25;;;;;;;5.45;67.30;93705.28;4995223;28;20521;-91
2021/04/12 01:00:37;;;;;;;14.38;5.93;;;;;;;5.50;67.69;93698.88;4995448;28;20085;-90
2021/04/12 01:03:39;;;;;;;12.55;5.80;;;;;;;5.49;67.56;93703.19;4995094;28;20068;-90
2021/04/12 01:06:11;;;;;;;9.38;4.80;;;;;;;5.41;68.27;93693.81;4981726;28;20042;-90
2021/04/12 01:09:08;;;;;;;10.60;4.60;;;;;;;5.46;69.08;93706.84;4994993;28;20053;-90
2021/04/12 01:12:02;;;;;;;9.77;4.20;;;;;;;5.52;68.99;93707.97;4995184;28;20061;-90
2021/04/12 01:14:59;;;;;;;6.30;3.80;;;;;;;5.53;68.87;93698.53;4994908;28;20073;-90
2021/04/12 01:18:03;;;;;;;7.97;4.20;;;;;;;5.48;69.30;93688.84;4994758;28;20047;-91
2021/04/12 01:21:01;;;;;;;11.80;4.15;;;;;;;5.54;69.66;93695.84;4994625;28;20125;-90
2021/04/12 01:24:01;;;;;;;7.57;3.72;;;;;;;5.66;70.27;93711.56;4994696;28;20054;-91
2021/04/12 01:26:59;;;;;;;4.55;3.17;;;;;;;5.70;69.58;93706.91;4991439;28;20406;-90
2021/04/12 01:30:12;;;;;;;5.53;3.30;;;;;;;5.77;68.89;93717.22;4994557;28;20050;-91
2021/04/12 01:33:13;;;;;;;8.23;3.80;;;;;;;5.71;69.54;93716.16;4994706;28;20050;-89
2021/04/12 01:36:09;;;;;;;9.57;4.13;;;;;;;5.77;67.56;93723.13;4994515;28;20384;-90
2021/04/12 01:38:37;;;;;;;8.00;5.20;;;;;;;5.74;67.89;93711.50;4941335;28;20050;-91
2021/04/12 01:41:30;;;;;;;11.10;5.20;;;;;;;5.72;67.26;93723.63;4994319;28;20046;-91
2021/04/12 01:44:18;;;;;;;7.38;4.78;;;;;;;5.72;68.33;93728.72;4994435;28;20089;-90
2021/04/12 01:46:53;;;;;;;9.55;4.60;;;;;;;5.74;67.62;93731.13;4994180;28;20073;-91
2021/04/12 01:49:34;;;;;;;9.27;5.70;;;;;;;5.77;67.51;93728.22;4994660;28;20050;-90
2021/04/12 01:52:20;;;;;;;12.10;5.50;;;;;;;5.70;69.00;93717.88;4994481;28;20047;-90
2021/04/12 01:54:58;;;;;;;12.77;5.30;;;;;;;5.81;67.71;93714.19;4994114;28;20046;-89
2021/04/12 01:57:49;;;;;;;10.07;5.70;;;;;;;5.77;67.68;93727.41;4994156;28;20506;-90
2021/04/12 02:00:32;;;;;;;12.25;5.30;;;;;;;5.77;68.12;93723.13;4994180;28;20057;-90
2021/04/12 02:03:09;;;;;;;10.23;5.25;;;;;;;5.69;68.41;93715.53;4993548;28;20050;-90
2021/04/12 02:05:55;;;;;;;9.60;5.20;;;;;;;5.62;69.62;93720.50;4993835;28;20050;-91
2021/04/12 02:08:28;;;;;;;9.63;5.35;;;;;;;5.57;69.33;93718.44;4993670;28;20499;-90
2021/04/12 02:11:11;;;;;;;9.30;5.30;;;;;;;5.62;68.35;93713.63;4993881;28;20051;-90
2021/04/12 02:13:52;;;;;;;11.57;5.97;;;;;;;5.72;68.31;93712.63;4993657;28;20422;-92
2021/04/12 02:16:32;;;;;;;12.27;5.00;;;;;;;5.57;68.46;93702.34;4993728;28;20491;-89
2021/04/12 02:19:28;;;;;;;10.15;4.85;;;;;;;5.58;68.17;93707.28;4993617;28;20049;-90
2021/04/12 02:22:10;;;;;;;8.60;4.63;;;;;;;5.62;66.92;93708.53;4993717;28;20579;-91
2021/04/12 02:24:44;;;;;;;8.82;3.95;;;;;;;5.70;65.88;93709.47;4993535;28;20499;-90
2021/04/12 02:27:15;;;;;;;13.05;5.82;;;;;;;5.78;66.31;93699.22;4993656;28;20419;-90
2021/04/12 02:29:55;;;;;;;10.68;4.93;;;;;;;5.69;66.96;93667.88;4993371;28;20065;-89
2021/04/12 02:32:40;;;;;;;9.82;4.82;;;;;;;5.86;65.18;93694.09;4993267;28;20061;-89
2021/04/12 02:35:18;;;;;;;11.13;4.63;;;;;;;5.88;65.26;93687.06;4993670;28;20046;-90
2021/04/12 02:37:59;;;;;;;8.82;4.75;;;;;;;5.93;66.95;93685.75;4993333;28;20050;-90
2021/04/12 02:40:54;;;;;;;12.23;5.13;;;;;;;6.06;65.77;93693.66;4993327;28;20050;-89
2021/04/12 02:43:35;;;;;;;12.77;5.30;;;;;;;6.03;66.41;93683.81;4985915;28;20057;-91
2021/04/12 02:46:18;;;;;;;12.00;5.05;;;;;;;6.10;66.90;93692.38;4993047;28;20406;-93
2021/04/12 02:48:57;;;;;;;9.45;4.97;;;;;;;6.06;65.88;93691.13;4992930;28;20058;-90
2021/04/12 02:51:35;;;;;;;7.72;4.63;;;;;;;6.08;64.95;93694.31;4993020;28;20056;-89
2021/04/12 02:54:19;;;;;;;7.82;4.32;;;;;;;6.08;64.78;93693.50;4993130;28;20062;-90
2021/04/12 02:57:13;;;;;;;8.23;4.78;;;;;;;6.06;65.34;93698.75;4993080;28;20054;-90
2021/04/12 03:00:07;;;;;;;5.82;3.97;;;;;;;6.01;65.16;93683.16;4972645;28;20050;-90
2021/04/12 03:02:50;;;;;;;7.53;4.07;;;;;;;6.08;64.74;93691.75;4992949;28;20046;-88
2021/04/12 03:05:47;;;;;;;8.40;3.65;;;;;;;6.16;64.66;93693.47;4992827;28;20435;-88
2021/04/12 03:08:29;;;;;;;13.65;4.18;;;;;;;6.11;65.38;93675.31;4992683;28;20057;-90
2021/04/12 03:11:15;;;;;;;8.45;5.43;;;;;;;6.23;66.26;93693.56;4992867;28;20046;-89
2021/04/12 03:14:24;;;;;;;10.40;5.18;;;;;;;6.23;66.16;93683.34;4972564;28;20458;-89
2021/04/12 03:17:22;;;;;;;10.52;5.32;;;;;;;6.25;67.19;93684.75;4913154;29;20143;-90
2021/04/12 03:20:22;;;;;;;11.65;5.07;;;;;;;6.27;66.30;93690.50;4977242;28;20057;-91
2021/04/12 03:23:33;;;;;;;24.30;5.47;;;;;;;6.33;66.50;93685.66;4992652;28;20057;-91
2021/04/12 03:26:11;;;;;;;14.00;6.82;;;;;;;6.32;68.11;93695.09;4992591;28;20051;-90
2021/04/12 03:29:02;;;;;;;18.58;6.03;;;;;;;6.29;66.92;93682.66;4992349;28;20051;-91
2021/04/12 03:31:53;;;;;;;13.18;5.72;;;;;;;6.40;66.88;93689.91;4982509;28;20094;-90
2021/04/12 03:34:24;;;;;;;12.98;6.07;;;;;;;6.46;66.14;93702.94;4992158;28;20050;-88
2021/04/12 03:37:18;;;;;;;9.43;5.63;;;;;;;6.27;67.67;93677.75;4994268;28;20046;-89
2021/04/12 03:39:52;;;;;;;10.75;5.15;;;;;;;6.31;67.67;93700.34;4992075;28;20042;-88
2021/04/12 03:43:09;;;;;;;8.93;4.75;;;;;;;6.19;68.96;93688.00;4992259;28;20128;-90
2021/04/12 03:46:07;;;;;;;12.32;4.55;;;;;;;6.30;67.55;93701.31;4943479;28;20054;-90
2021/04/12 03:49:15;;;;;;;8.40;4.78;;;;;;;6.26;67.91;93699.09;4991955;28;20061;-90
2021/04/12 03:52:02;;;;;;;8.32;4.70;;;;;;;6.19;67.46;93684.66;4990466;28;20062;-90
2021/04/12 03:54:49;;;;;;;11.32;5.45;;;;;;;6.28;67.65;93692.09;4991834;28;20092;-89
2021/04/12 03:57:51;;;;;;;6.93;4.35;;;;;;;6.16;69.30;93678.16;4991945;28;20050;-90
2021/04/12 04:00:59;;;;;;;7.40;4.70;;;;;;;5.96;69.59;93691.31;4991644;28;20125;-91
2021/04/12 04:03:51;;;;;;;11.38;3.97;;;;;;;6.02;68.91;93672.00;4991717;28;20058;-89
2021/04/12 04:06:33;;;;;;;8.75;4.43;;;;;;;6.09;69.20;93685.69;4984518;28;20113;-89
2021/04/12 04:09:17;;;;;;;8.55;4.80;;;;;;;6.18;68.32;93677.97;4991811;28;20058;-90
2021/04/12 04:12:03;;;;;;;15.30;6.75;;;;;;;6.27;69.13;93687.97;4991606;28;20058;-90
2021/04/12 04:14:48;;;;;;;;;;;;;;;6.28;67.61;93681.88;4991963;28;20047;-91
2021/04/12 04:17:43;;;;;;;12.95;6.40;;;;;;;6.33;68.28;93680.56;4991570;28;20381;-89
2021/04/12 04:20:30;;;;;;;15.07;7.25;;;;;;;6.16;70.26;93683.25;4978927;28;20046;-90
2021/04/12 04:23:22;;;;;;;22.75;8.68;;;;;;;6.12;70.40;93670.03;4991368;28;20046;-91
2021/04/12 04:26:10;;;;;;;12.57;7.00;;;;;;;6.20;70.15;93686.25;4991458;28;20552;-89
2021/04/12 04:29:00;;;;;;;11.00;5.32;;;;;;;6.31;68.74;93683.31;4991508;28;20062;-89
2021/04/12 04:31:56;;;;;;;11.18;6.40;;;;;;;6.32;68.67;93671.31;4991135;28;20186;-89
2021/04/12 04:34:33;;;;;;;11.80;5.80;;;;;;;6.47;68.38;93677.25;4991375;28;20050;-89
2021/04/12 04:37:41;;;;;;;15.13;6.05;;;;;;;6.53;69.16;93675.78;4991132;28;20383;-89
2021/04/12 04:40:32;;;;;;;9.75;6.78;;;;;;;6.70;67.11;93680.75;4992030;28;20065;-89
2021/04/12 04:43:17;;;;;;;11.70;5.60;;;;;;;6.77;68.31;93684.97;4991304;28;20481;-89
2021/04/12 04:46:07;;;;;;;8.35;4.95;;;;;;;6.70;69.33;93678.19;4991266;28;20050;-89
2021/04/12 04:48:55;;;;;;;13.00;5.53;;;;;;;6.68;69.19;93678.38;4991313;28;20491;-89
2021/04/12 04:51:49;;;;;;;8.32;4.78;;;;;;;6.73;67.35;93678.66;4978970;28;20062;-89
2021/04/12 04:54:30;;;;;;;9.13;5.13;;;;;;;6.75;67.68;93681.81;4985580;28;20054;-90
2021/04/12 04:57:14;;;;;;;9.90;5.90;;;;;;;6.76;68.03;93677.50;4991277;28;20050;-90
2021/04/12 05:00:02;;;;;;;14.65;5.82;;;;;;;6.65;68.15;93650.63;4991167;28;20396;-91
2021/04/12 05:02:51;;;;;;;10.85;6.18;;;;;;;6.73;68.19;93678.66;4991039;28;20050;-90
2021/04/12 05:05:38;;;;;;;19.35;6.18;;;;;;;6.79;68.39;93684.81;4991471;28;20498;-90
2021/04/12 05:08:50;;;;;;;21.40;7.40;;;;;;;6.59;69.79;93671.75;4991093;28;20046;-90
2021/04/12 05:11:32;;;;;;;19.92;6.32;;;;;;;6.38;69.91;93666.34;4991102;28;20495;-89
2021/04/12 05:14:35;;;;;;;23.35;8.25;;;;;;;6.56;69.38;93670.34;4991015;28;20042;-90
2021/04/12 05:17:28;;;;;;;21.92;6.95;;;;;;;6.60;69.93;93681.78;4967492;28;20062;-89
2021/04/12 05:20:27;;;;;;;21.73;7.57;;;;;;;6.74;69.40;93677.69;4990976;28;20043;-90
2021/04/12 05:23:10;;;;;;;16.77;6.80;;;;;;;6.79;68.19;93680.50;4979631;28;20046;-91
2021/04/12 05:26:14;;;;;;;14.63;7.15;;;;;;;6.97;66.90;93681.13;4991200;28;20057;-89
2021/04/12 05:28:56;;;;;;;12.98;7.25;;;;;;;7.07;65.85;93679.91;4990927;28;20054;-90
2021/04/12 05:31:48;;;;;;;18.25;8.27;;;;;;;7.15;66.14;93678.22;4990793;28;20050;-90
2021/04/12 05:34:50;;;;;;;15.23;7.88;;;;;;;7.29;66.78;93668.97;4991066;28;20057;-90
2021/04/12 05:37:29;;;;;;;20.13;9.25;;;;;;;7.33;65.23;93668.41;4975776;28;20422;-89
2021/04/12 05:40:14;;;;;;;16.70;7.53;;;;;;;7.48;64.02;93665.06;4993687;28;20050;-90
2021/04/12 05:43:06;;;;;;;29.48;11.02;;;;;;;7.42;64.94;93663.22;4994395;28;20514;-90
2021/04/12 05:46:27;;;;;;;24.95;10.35;;;;;;;7.43;65.29;93682.69;4985951;28;20061;-91
2021/04/12 05:49:06;;;;;;;21.70;9.93;;;;;;;7.43;64.35;93680.94;4915116;29;20059;-91
2021/04/12 05:51:54;;;;;;;16.73;8.90;;;;;;;7.51;64.90;93681.81;4994680;28;20054;-90
2021/04/12 05:54:29;;;;;;;21.00;10.10;;;;;;;7.55;64.44;93678.72;4994144;28;20093;-91
2021/04/12 05:57:33;;;;;;;22.77;10.73;;;;;;;7.72;63.70;93678.50;4994197;28;20050;-89
2021/04/12 06:00:32;;;;;;;27.50;10.43;;;;;;;7.62;64.01;93671.13;4994199;28;20058;-91
2021/04/12 06:03:14;;;;;;;25.00;11.02;;;;;;;7.68;64.33;93655.06;4990985;28;20053;-90
2021/04/12 06:06:25;;;;;;;33.40;11.57;;;;;;;7.95;63.30;93657.91;5001331;28;20054;-90
2021/04/12 06:09:26;;;;;;;27.95;11.10;;;;;;;8.04;63.04;93637.31;4973747;28;20050;-90
2021/04/12 06:12:44;;;;;;;25.75;9.00;;;;;;;8.42;61.60;93665.19;4993151;28;20050;-91
2021/04/12 06:15:46;;;;;;;17.90;10.05;;;;;;;8.50;61.75;93641.22;4993782;28;20046;-92
2021/04/12 06:18:37;;;;;;;25.83;10.65;;;;;;;8.72;61.76;93654.81;4993784;28;20050;-90
2021/04/12 06:21:29;;;;;;;21.20;9.50;;;;;;;9.02;61.00;93654.59;4993878;28;20059;-90
2021/04/12 06:24:10;;;;;;;28.13;10.40;;;;;;;9.13;60.51;93655.84;4990472;28;20053;-90
2021/04/12 06:26:54;;;;;;;21.40;10.10;;;;;;;9.26;60.92;93649.97;4993797;28;20073;-91
2021/04/12 06:29:58;;;;;;;23.23;11.02;;;;;;;9.18;61.33;93640.69;4993382;28;20050;-91
2021/04/12 06:33:03;;;;;;;19.25;9.50;;;;;;;9.31;62.21;93639.94;4993667;28;20506;-90
2021/04/12 06:35:51;;;;;;;21.85;10.40;;;;;;;9.46;60.86;93652.66;4927501;28;20042;-89
2021/04/12 06:38:52;;;;;;;25.27;12.38;;;;;;;9.66;60.08;93659.63;4993263;28;20411;-92
2021/04/12 06:42:01;;;;;;;22.70;9.77;;;;;;;9.70;60.40;93642.88;4993540;28;20380;-90
2021/04/12 06:44:45;;;;;;;19.27;10.90;;;;;;;9.82;61.54;93671.28;4993201;28;20051;-92
2021/04/12 06:47:36;;;;;;;24.58;12.18;;;;;;;9.87;60.62;93676.63;4993390;28;20066;-91
2021/04/12 06:50:17;;;;;;;18.17;7.30;;;;;;;9.88;61.45;93667.97;4992174;28;20404;-91
2021/04/12 06:53:27;;;;;;;16.75;6.88;;;;;;;9.82;60.97;93655.13;4993076;28;20051;-91
2021/04/12 06:56:42;;;;;;;17.13;7.35;;;;;;;10.29;59.89;93679.09;4992945;28;20046;-91
2021/04/12 06:59:53;;;;;;;13.02;7.63;;;;;;;10.46;59.62;93673.59;4992787;28;20431;-90
2021/04/12 07:02:44;;;;;;;18.20;6.95;;;;;;;10.89;58.80;93674.19;4992931;28;20057;-90
2021/04/12 07:05:41;;;;;;;19.45;7.50;;;;;;;11.24;57.92;93658.50;4992889;28;20042;-91
2021/04/12 07:08:36;;;;;;;16.00;8.57;;;;;;;11.71;55.98;93660.13;4993035;28;20042;-92
2021/04/12 07:11:42;;;;;;;23.33;10.07;;;;;;;12.06;55.19;93658.97;4992672;28;20057;-91
2021/04/12 07:14:42;;;;;;;18.38;8.57;;;;;;;12.46;54.98;93656.13;4967629;28;20315;-91
2021/04/12 07:17:52;;;;;;;11.57;6.30;;;;;;;13.25;53.33;93651.47;4989402;28;20046;-90
2021/04/12 07:20:57;;;;;;;7.22;3.00;;;;;;;13.95;50.64;93642.50;4992485;28;20054;-89
2021/04/12 07:24:12;;;;;;;6.80;2.55;;;;;;;14.60;48.06;93645.34;4928192;28;20503;-90
2021/04/12 07:27:12;;;;;;;6.97;3.97;;;;;;;14.83;46.62;93630.88;4958722;28;20057;-91
2021/04/12 07:30:11;;;;;;;5.18;2.50;;;;;;;14.97;46.37;93639.19;4992399;28;20100;-90
2021/04/12 07:33:11;;;;;;;3.05;1.83;;;;;;;14.89;46.12;93624.81;4972623;28;20125;-92
2021/04/12 07:36:25;;;;;;;3.00;1.98;;;;;;;15.04;45.91;93623.56;4953877;28;20569;-91
2021/04/12 07:39:18;;;;;;;9.00;3.77;;;;;;;15.00;45.64;93628.38;4953378;29;20051;-91
2021/04/12 07:42:41;;;;;;;8.77;3.13;;;;;;;15.18;45.40;93618.94;4953821;29;20293;-91
2021/04/12 07:45:42;;;;;;;4.82;2.63;;;;;;;15.44;44.63;93609.88;4953296;29;20535;-92
2021/04/12 07:48:53;;;;;;;5.60;2.53;;;;;;;15.67;43.87;93603.03;4952244;28;20062;-91
2021/04/12 07:52:06;;;;;;;4.05;1.95;;;;;;;15.95;43.08;93609.25;4953192;29;20412;-90
2021/04/12 07:55:20;;;;;;;4.78;1.88;;;;;;;15.95;43.35;93605.84;4951085;28;20051;-90
2021/04/12 07:57:57;;;;;;;;;;;;;;;16.14;42.48;93607.22;4894398;29;20049;-89
2021/04/12 08:00:48;;;;;;;25.65;8.43;;;;;;;16.29;42.25;93605.88;4943053;29;19976;-89
2021/04/12 08:03:53;;;;;;;16.50;6.50;;;;;;;16.56;41.31;93613.84;4953169;29;20098;-89
2021/04/12 08:06:40;;;;;;;;;;;;;;;16.82;40.89;93606.41;4953858;29;20062;-91
2021/04/12 08:09:41;;;;;;;5.72;2.65;;;;;;;17.17;40.24;93596.00;4944226;29;19922;-92
2021/04/12 08:12:52;;;;;;;14.15;4.22;;;;;;;17.42;39.24;93586.94;4952932;29;20059;-91
2021/04/12 08:16:05;;;;;;;31.85;11.48;;;;;;;17.68;38.63;93580.19;4953386;29;20051;-92
2021/04/12 08:19:01;;;;;;;17.17;6.50;;;;;;;18.07;36.86;93588.88;4953131;29;20492;-90
2021/04/12 08:22:03;;;;;;;15.10;3.38;;;;;;;18.24;37.13;93591.38;4953244;29;20055;-91
2021/04/12 08:25:07;;;;;;;45.10;15.70;;;;;;;18.55;37.22;93595.00;4952842;29;20051;-91
2021/04/12 08:28:12;;;;;;;36.70;11.30;;;;;;;18.66;36.10;93585.41;4952956;29;20348;-88
2021/04/12 08:31:24;;;;;;;8.93;2.80;;;;;;;19.06;35.38;93591.16;4959283;28;21055;-92
2021/04/12 08:34:37;;;;;;;13.18;4.70;;;;;;;19.34;34.84;93588.38;4972198;28;20519;-91
2021/04/12 08:37:23;;;;;;;10.43;4.35;;;;;;;19.15;35.09;93567.22;4912167;29;20116;-91
2021/04/12 08:40:22;;;;;;;14.63;3.83;;;;;;;19.38;33.58;93578.28;4965845;28;20101;-91
2021/04/12 08:43:14;;;;;;;5.70;2.28;;;;;;;19.45;31.92;93576.19;4972000;28;20126;-90
2021/04/12 08:46:12;;;;;;;13.55;5.18;;;;;;;19.56;32.80;93569.97;4972107;28;20043;-90
2021/04/12 08:49:14;;;;;;;4.85;2.33;;;;;;;19.65;32.41;93569.47;4971909;28;20050;-91
2021/04/12 08:52:07;;;;;;;8.10;1.80;;;;;;;19.87;32.86;93572.63;4950805;28;20047;-90
2021/04/12 08:55:04;;;;;;;25.30;8.55;;;;;;;20.10;32.91;93557.59;4954298;28;20050;-90
2021/04/12 08:57:57;;;;;;;9.95;3.83;;;;;;;20.39;31.91;93571.91;4968662;28;20082;-88
2021/04/12 09:00:59;;;;;;;5.05;2.22;;;;;;;20.67;31.35;93556.72;4972005;28;20055;-90
2021/04/12 09:04:09;;;;;;;19.80;6.95;;;;;;;20.72;30.98;93542.88;4974174;28;20070;-88
2021/04/12 09:07:20;;;;;;;21.02;6.38;;;;;;;21.09;30.81;93550.38;4973676;28;20050;-91
2021/04/12 09:10:35;;;;;;;4.75;1.98;;;;;;;21.15;30.28;93553.00;4893439;29;20056;-91
2021/04/12 09:13:31;;;;;;;5.45;2.10;;;;;;;21.26;30.55;93546.66;4971857;28;20053;-89
2021/04/12 09:16:16;;;;;;;3.47;1.80;;;;;;;20.96;29.88;93551.75;4975271;28;20053;-92
2021/04/12 09:19:25;;;;;;;5.82;2.10;;;;;;;20.95;30.38;93544.16;4975324;28;20055;-91
2021/04/12 09:22:19;;;;;;;5.35;2.80;;;;;;;21.13;30.61;93544.63;4975389;28;20098;-92
2021/04/12 09:25:03;;;;;;;8.90;3.22;;;;;;;21.05;30.49;93540.72;4975222;28;20574;-92
2021/04/12 09:27:51;;;;;;;11.18;3.65;;;;;;;21.27;31.53;93535.16;4975126;28;20047;-91
2021/04/12 09:30:34;;;;;;;46.80;16.45;;;;;;;21.36;29.76;93532.75;4975168;28;20519;-91
2021/04/12 09:33:30;;;;;;;15.43;5.35;;;;;;;21.52;30.25;93528.22;4975209;28;20050;-92
2021/04/12 09:36:12;;;;;;;4.25;1.80;;;;;;;21.15;27.95;93537.31;4974918;28;20523;-93
2021/04/12 09:39:29;;;;;;;4.18;1.40;;;;;;;20.56;30.95;93530.66;4975509;28;20055;-91
2021/04/12 09:42:24;;;;;;;4.78;2.05;;;;;;;20.94;31.39;93525.13;4975178;28;20047;-91
2021/04/12 09:45:47;;;;;;;9.13;2.95;;;;;;;21.28;30.55;93513.22;4974931;28;20050;-90
2021/04/12 09:48:46;;;;;;;9.85;3.15;;;;;;;21.00;30.57;93506.78;4975203;28;20065;-91
2021/04/12 09:51:44;;;;;;;86.90;26.90;;;;;;;21.34;28.50;93511.38;4975144;28;20085;-92
2021/04/12 09:54:49;;;;;;;15.00;6.60;;;;;;;21.26;29.96;93499.66;4974563;28;20051;-92
2021/04/12 09:57:50;;;;;;;10.80;4.78;;;;;;;21.93;29.34;93506.28;4974527;28;20049;-90
2021/04/12 10:00:39;;;;;;;14.32;4.43;;;;;;;22.21;27.53;93506.59;4974444;28;20097;-91
2021/04/12 10:03:58;;;;;;;4.45;2.00;;;;;;;22.45;28.66;93499.84;4974803;28;20043;-91
2021/04/12 10:07:07;;;;;;;14.48;3.90;;;;;;;22.67;29.02;93497.53;4974606;28;20078;-92
2021/04/12 10:09:49;;;;;;;18.05;4.97;;;;;;;22.79;27.97;93499.00;4969495;28;20499;-92
2021/04/12 10:12:33;;;;;;;4.35;1.88;;;;;;;22.83;26.43;93494.75;4974669;28;20054;-92
2021/04/12 10:15:06;;;;;;;8.88;2.60;;;;;;;22.86;26.53;93491.56;4974172;28;20086;-92
2021/04/12 10:17:40;;;;;;;11.52;3.40;;;;;;;22.95;27.42;93483.88;4974557;28;20097;-92
2021/04/12 10:20:13;;;;;;;5.78;1.77;;;;;;;23.07;26.37;93476.41;4974561;28;20053;-91
2021/04/12 10:22:57;;;;;;;4.20;1.45;;;;;;;23.03;26.95;93483.25;4974552;28;20117;-91
2021/04/12 10:25:31;;;;;;;2.30;1.30;;;;;;;22.85;26.13;93486.63;4973997;28;20581;-92
2021/04/12 10:28:15;;;;;;;2.83;1.27;;;;;;;21.28;26.32;93486.31;4975738;28;20051;-94
2021/04/12 10:30:49;;;;;;;3.30;1.20;;;;;;;21.30;27.04;93473.75;4974626;28;20069;-93
2021/04/12 10:33:23;;;;;;;6.10;1.35;;;;;;;20.16;28.29;93469.69;4975479;28;20054;-94
2021/04/12 10:35:53;;;;;;;4.57;1.58;;;;;;;20.47;29.95;93474.06;4974320;28;20428;-92
2021/04/12 10:38:26;;;;;;;3.65;2.40;;;;;;;21.16;27.39;93470.97;4974053;28;20055;-93
2021/04/12 10:40:59;;;;;;;4.28;2.22;;;;;;;21.66;26.95;93473.50;4974300;28;20435;-92
2021/04/12 10:43:31;;;;;;;5.18;1.50;;;;;;;21.97;27.87;93469.91;4973834;28;20047;-92
2021/04/12 10:46:02;;;;;;;5.68;1.90;;;;;;;22.53;27.34;93468.63;4975671;28;20060;-91
2021/04/12 10:48:33;;;;;;;6.10;1.80;;;;;;;22.71;27.25;93455.09;4992945;28;20101;-89
2021/04/12 10:51:05;;;;;;;4.53;1.42;;;;;;;22.77;25.88;93469.69;4992848;28;20540;-88
2021/04/12 10:53:41;;;;;;;3.40;1.60;;;;;;;22.75;25.04;93469.97;4992442;28;20042;-88
2021/04/12 10:56:14;;;;;;;2.40;1.13;;;;;;;22.93;25.59;93475.53;4992488;28;20458;-91
2021/04/12 10:59:02;;;;;;;4.13;1.90;;;;;;;22.75;24.41;93464.72;4991875;28;20050;-91
2021/04/12 11:01:42;;;;;;;2.17;1.17;;;;;;;21.99;24.97;93447.66;4991678;28;20499;-92
2021/04/12 11:04:23;;;;;;;3.47;2.10;;;;;;;22.80;25.69;93453.41;4991330;28;20046;-91
2021/04/12 11:07:06;;;;;;;8.63;1.95;;;;;;;22.73;26.34;93452.97;4991617;28;20050;-90
2021/04/12 11:09:46;;;;;;;4.13;2.00;;;;;;;22.88;25.21;93431.06;4990144;28;20157;-91
2021/04/12 11:12:30;;;;;;;6.25;2.00;;;;;;;23.26;26.42;93433.69;4992864;28;20046;-89
2021/04/12 11:15:05;;;;;;;4.10;1.40;;;;;;;23.18;24.91;93432.50;4992659;28;20050;-92
2021/04/12 11:17:41;;;;;;;2.60;1.25;;;;;;;23.35;26.42;93431.25;4990859;28;20058;-92
2021/04/12 11:20:12;;;;;;;3.17;1.58;;;;;;;23.49;25.72;93416.38;4993126;28;20101;-90
2021/04/12 11:22:56;;;;;;;2.38;1.13;;;;;;;22.49;25.65;93427.56;4993428;28;20046;-93
2021/04/12 11:25:34;;;;;;;2.60;1.48;;;;;;;22.29;27.40;93427.50;4973985;28;20047;-90
2021/04/12 11:28:39;;;;;;;3.05;1.50;;;;;;;21.97;27.52;93428.84;4973249;28;20053;-92
2021/04/12 11:31:19;;;;;;;3.00;1.30;;;;;;;22.09;28.11;93420.66;4894298;29;20466;-90
2021/04/12 11:33:57;;;;;;;5.95;1.55;;;;;;;21.31;28.60;93413.41;4966545;28;20134;-93
2021/04/12 11:36:35;;;;;;;7.38;1.27;;;;;;;21.16;28.15;93416.88;4988550;28;20057;-93
2021/04/12 11:39:08;;;;;;;2.95;1.27;;;;;;;21.29;29.60;93410.25;4992373;28;20050;-93
2021/04/12 11:41:47;;;;;;;2.53;1.38;;;;;;;21.10;29.57;93404.91;4992187;28;20053;-88
2021/04/12 11:44:17;;;;;;;8.48;1.60;;;;;;;21.43;29.38;93415.66;4992038;28;20057;-92
2021/04/12 11:47:18;;;;;;;3.58;1.33;;;;;;;21.40;29.76;93403.16;4991989;28;20057;-93
2021/04/12 11:50:10;;;;;;;5.72;1.92;;;;;;;21.49;27.91;93411.19;4992038;28;20494;-93
2021/04/12 11:52:47;;;;;;;2.97;1.33;;;;;;;21.32;28.53;93409.72;4992352;28;20053;-91
2021/04/12 11:55:21;;;;;;;4.43;1.20;;;;;;;20.96;29.18;93386.44;4992206;28;20057;-94
2021/04/12 11:57:52;;;;;;;3.92;1.10;;;;;;;20.96;28.99;93402.09;4992290;28;20050;-92
2021/04/12 12:00:24;;;;;;;3.35;1.17;;;;;;;21.10;29.04;93394.44;4991904;28;20517;-92
2021/04/12 12:03:07;;;;;;;2.38;1.35;;;;;;;21.27;29.03;93391.47;4991922;28;20046;-92
2021/04/12 12:05:37;;;;;;;4.55;1.30;;;;;;;21.43;28.04;93386.16;4991667;28;20050;-93
2021/04/12 12:08:08;;;;;;;2.70;1.17;;;;;;;21.71;27.95;93376.78;4991848;28;20054;-93
2021/04/12 12:10:54;;;;;;;3.75;1.77;;;;;;;21.69;27.52;93370.22;4991902;28;20050;-93
2021/04/12 12:13:38;;;;;;;4.70;1.73;;;;;;;22.20;27.10;93369.00;4991746;28;20046;-93
2021/04/12 12:16:23;;;;;;;3.88;1.73;;;;;;;22.52;25.92;93351.09;4991832;28;20051;-93
2021/04/12 12:18:55;;;;;;;3.00;1.42;;;;;;;22.25;26.93;93361.09;4993443;28;20061;-94
2021/04/12 12:21:25;;;;;;;3.25;1.25;;;;;;;21.71;27.35;93349.88;4992667;28;20050;-94
2021/04/12 12:24:15;;;;;;;4.72;2.00;;;;;;;21.81;27.25;93341.16;4992209;28;20433;-93
2021/04/12 12:26:50;;;;;;;3.53;2.00;;;;;;;22.25;27.17;93344.59;4992069;28;20109;-91
2021/04/12 12:29:21;;;;;;;2.92;1.50;;;;;;;22.82;26.79;93346.56;4991338;28;20541;-92
2021/04/12 12:32:05;;;;;;;3.83;1.40;;;;;;;23.09;27.44;93339.88;4991438;28;20489;-92
2021/04/12 12:34:44;;;;;;;3.20;1.80;;;;;;;23.33;27.62;93321.44;4991257;28;20511;-88
2021/04/12 12:37:24;;;;;;;3.47;1.42;;;;;;;23.67;26.60;93332.69;4991646;28;20053;-89
2021/04/12 12:39:53;;;;;;;3.30;1.25;;;;;;;23.91;26.38;93320.47;4991543;28;20418;-91
2021/04/12 12:42:24;;;;;;;2.38;1.40;;;;;;;24.28;25.95;93326.63;4991343;28;20491;-88
2021/04/12 12:44:55;;;;;;;2.25;1.02;;;;;;;24.46;26.22;93316.31;4991188;28;20486;-88
2021/04/12 12:47:25;;;;;;;2.78;1.30;;;;;;;24.31;25.79;93312.16;4990488;28;20133;-91
2021/04/12 12:49:56;;;;;;;4.30;1.42;;;;;;;23.93;25.92;93307.88;4994749;28;20217;-90
2021/04/12 12:52:30;;;;;;;3.78;2.25;;;;;;;23.73;24.33;93315.03;4996440;28;20050;-92
2021/04/12 12:55:00;;;;;;;5.18;1.45;;;;;;;23.78;25.20;93311.53;4995329;28;20050;-91
2021/04/12 12:57:31;;;;;;;1.98;1.35;;;;;;;23.92;25.34;93299.19;4994998;28;20065;-91
2021/04/12 13:00:08;;;;;;;3.13;1.65;;;;;;;24.08;25.63;93296.31;4995325;28;20414;-91
2021/04/12 13:02:38;;;;;;;3.25;1.20;;;;;;;24.12;26.36;93287.56;4995167;28;20042;-91
2021/04/12 13:05:10;;;;;;;3.72;0.95;;;;;;;24.33;26.25;93294.25;4995168;28;20050;-88
2021/04/12 13:07:38;;;;;;;2.20;1.20;;;;;;;24.50;26.10;93280.50;4995293;28;20698;-91
2021/04/12 13:10:09;;;;;;;3.55;1.48;;;;;;;24.69;25.67;93277.75;4994788;28;20058;-89
2021/04/12 13:12:40;;;;;;;2.85;1.77;;;;;;;24.49;26.13;93278.97;5004255;28;20057;-91